Time,TemperatureF,DewpointF,PressureIn,WindDirection,WindDirectionDegrees,WindSpeedMPH,WindSpeedGustMPH,Humidity,HourlyPrecipIn,Conditions,Clouds,dailyrainin,SoftwareType,DateUTC
2013-03-23 00:03:00,24.0,20.0,30.03,West,267,0.0,0.0,84,0.00,,,0.03,,2013-03-23 04:03:00,
2013-03-23 00:12:00,24.0,20.0,30.03,West,267,0.0,0.0,84,0.00,,,0.03,,2013-03-23 04:12:00,
2013-03-23 00:23:00,24.0,20.0,30.03,West,267,0.0,0.0,84,0.00,,,0.03,,2013-03-23 04:23:00,
2013-03-23 00:32:00,24.0,20.0,30.04,West,267,0.0,1.0,84,0.00,,,0.03,,2013-03-23 04:32:00,
2013-03-23 00:43:00,24.0,20.0,30.04,West,267,0.0,1.0,84,0.00,,,0.03,,2013-03-23 04:43:00,
2013-03-23 00:53:00,24.0,20.0,30.04,West,267,0.0,1.0,84,0.00,,,0.03,,2013-03-23 04:53:00,
2013-03-23 01:02:00,23.0,19.0,30.05,West,267,0.0,0.0,84,0.00,,,0.03,,2013-03-23 05:02:00,
2013-03-23 01:12:00,23.0,19.0,30.05,West,267,0.0,0.0,84,0.00,,,0.03,,2013-03-23 05:12:00,
2013-03-23 01:22:00,23.0,19.0,30.05,West,267,0.0,0.0,84,0.00,,,0.03,,2013-03-23 05:22:00,
2013-03-23 01:32:00,23.0,19.0,30.05,West,267,0.0,0.0,83,0.00,,,0.03,,2013-03-23 05:32:00,
2013-03-23 01:42:00,23.0,19.0,30.05,West,267,0.0,0.0,83,0.00,,,0.03,,2013-03-23 05:42:00,
2013-03-23 01:53:00,23.0,19.0,30.05,West,267,0.0,0.0,83,0.00,,,0.03,,2013-03-23 05:53:00,
2013-03-23 02:02:00,23.0,19.0,30.05,West,267,0.0,1.0,83,0.00,,,0.03,,2013-03-23 06:02:00,
2013-03-23 02:12:00,23.0,19.0,30.05,West,267,0.0,1.0,83,0.00,,,0.03,,2013-03-23 06:12:00,
2013-03-23 02:22:00,23.0,19.0,30.05,West,267,0.0,1.0,83,0.00,,,0.03,,2013-03-23 06:22:00,
2013-03-23 02:32:00,22.0,18.0,30.06,West,267,0.0,1.0,83,0.00,,,0.03,,2013-03-23 06:32:00,
2013-03-23 02:42:00,22.0,18.0,30.06,West,267,0.0,1.0,83,0.00,,,0.03,,2013-03-23 06:42:00,
2013-03-23 02:52:00,22.0,18.0,30.06,West,267,0.0,1.0,83,0.00,,,0.03,,2013-03-23 06:52:00,
2013-03-23 03:03:00,23.0,18.0,30.05,West,267,0.0,0.0,82,0.00,,,0.03,,2013-03-23 07:03:00,
2013-03-23 03:12:00,23.0,18.0,30.05,West,267,0.0,0.0,82,0.00,,,0.03,,2013-03-23 07:12:00,
2013-03-23 03:22:00,23.0,18.0,30.05,West,267,0.0,0.0,82,0.00,,,0.03,,2013-03-23 07:22:00,
2013-03-23 03:32:00,25.0,21.0,30.04,West,267,1.0,3.0,83,0.00,,,0.03,,2013-03-23 07:32:00,
2013-03-23 03:42:00,25.0,21.0,30.04,West,267,1.0,3.0,83,0.00,,,0.03,,2013-03-23 07:42:00,
2013-03-23 03:52:00,25.0,21.0,30.04,West,267,1.0,3.0,83,0.00,,,0.03,,2013-03-23 07:52:00,
2013-03-23 04:03:00,26.0,22.0,30.04,West,267,1.0,2.0,83,0.00,,,0.03,,2013-03-23 08:03:00,
2013-03-23 04:13:00,26.0,22.0,30.04,West,267,1.0,2.0,83,0.00,,,0.03,,2013-03-23 08:13:00,
2013-03-23 04:22:00,26.0,22.0,30.04,West,267,1.0,2.0,83,0.00,,,0.03,,2013-03-23 08:22:00,
2013-03-23 04:32:00,27.0,22.0,30.04,NE,51,0.0,3.0,82,0.00,,,0.03,,2013-03-23 08:32:00,
2013-03-23 04:42:00,27.0,22.0,30.04,NE,51,0.0,3.0,82,0.00,,,0.03,,2013-03-23 08:42:00,
2013-03-23 04:53:00,27.0,22.0,30.04,NE,51,0.0,3.0,82,0.00,,,0.03,,2013-03-23 08:53:00,
2013-03-23 05:02:00,27.0,23.0,30.04,NE,49,3.0,7.0,83,0.00,,,0.03,,2013-03-23 09:02:00,
2013-03-23 05:12:00,27.0,23.0,30.04,NE,49,3.0,7.0,83,0.00,,,0.03,,2013-03-23 09:12:00,
2013-03-23 05:22:00,27.0,23.0,30.04,NE,49,3.0,7.0,83,0.00,,,0.03,,2013-03-23 09:22:00,
2013-03-23 05:33:00,27.0,23.0,30.05,NNW,336,3.0,5.0,83,0.00,,,0.03,,2013-03-23 09:33:00,
2013-03-23 05:43:00,27.0,23.0,30.05,NNW,336,3.0,5.0,83,0.00,,,0.03,,2013-03-23 09:43:00,
2013-03-23 05:53:00,27.0,23.0,30.05,NNW,336,3.0,5.0,83,0.00,,,0.03,,2013-03-23 09:53:00,
2013-03-23 06:03:00,27.0,22.0,30.05,NNW,344,0.0,3.0,82,0.00,,,0.03,,2013-03-23 10:03:00,
2013-03-23 06:13:00,27.0,22.0,30.05,NNW,344,0.0,3.0,82,0.00,,,0.03,,2013-03-23 10:13:00,
2013-03-23 06:23:00,27.0,22.0,30.05,NNW,344,0.0,3.0,82,0.00,,,0.03,,2013-03-23 10:23:00,
2013-03-23 06:34:00,27.0,22.0,30.05,NNW,344,1.0,3.0,82,0.00,,,0.03,,2013-03-23 10:34:00,
2013-03-23 06:42:00,27.0,22.0,30.05,NNW,344,1.0,3.0,82,0.00,,,0.03,,2013-03-23 10:42:00,
2013-03-23 06:53:00,27.0,22.0,30.05,NNW,344,1.0,3.0,82,0.00,,,0.03,,2013-03-23 10:53:00,
2013-03-23 07:03:00,28.0,23.0,30.05,North,355,1.0,3.0,81,0.00,,,0.03,,2013-03-23 11:03:00,
2013-03-23 07:12:00,28.0,23.0,30.05,North,355,1.0,3.0,81,0.00,,,0.03,,2013-03-23 11:12:00,
2013-03-23 07:22:00,28.0,23.0,30.05,North,355,1.0,3.0,81,0.00,,,0.03,,2013-03-23 11:22:00,
2013-03-23 07:32:00,28.0,23.0,30.06,NE,44,2.0,6.0,80,0.00,,,0.03,,2013-03-23 11:32:00,
2013-03-23 07:42:00,28.0,23.0,30.06,NE,44,2.0,6.0,80,0.00,,,0.03,,2013-03-23 11:42:00,
2013-03-23 07:52:00,28.0,23.0,30.06,NE,44,2.0,6.0,80,0.00,,,0.03,,2013-03-23 11:52:00,
2013-03-23 08:02:00,28.0,23.0,30.06,NNE,17,1.0,5.0,80,0.00,,,0.03,,2013-03-23 12:02:00,
2013-03-23 08:13:00,28.0,23.0,30.06,NNE,17,1.0,5.0,80,0.00,,,0.03,,2013-03-23 12:13:00,
2013-03-23 08:22:00,28.0,23.0,30.06,NNE,17,1.0,5.0,80,0.00,,,0.03,,2013-03-23 12:22:00,
2013-03-23 08:33:00,28.0,23.0,30.07,NNE,15,1.0,3.0,80,0.00,,,0.03,,2013-03-23 12:33:00,
2013-03-23 08:42:00,28.0,23.0,30.07,NNE,15,1.0,3.0,80,0.00,,,0.03,,2013-03-23 12:42:00,
2013-03-23 08:53:00,28.0,23.0,30.07,NNE,15,1.0,3.0,80,0.00,,,0.03,,2013-03-23 12:53:00,
2013-03-23 09:03:00,28.0,23.0,30.08,North,355,0.0,1.0,80,0.00,,,0.03,,2013-03-23 13:03:00,
2013-03-23 09:12:00,28.0,23.0,30.08,North,355,0.0,1.0,80,0.00,,,0.03,,2013-03-23 13:12:00,
2013-03-23 09:23:00,28.0,23.0,30.08,North,355,0.0,1.0,80,0.00,,,0.03,,2013-03-23 13:23:00,
2013-03-23 09:33:00,28.0,23.0,30.08,North,355,1.0,2.0,80,0.00,,,0.03,,2013-03-23 13:33:00,
2013-03-23 09:43:00,28.0,23.0,30.08,North,355,1.0,2.0,80,0.00,,,0.03,,2013-03-23 13:43:00,
2013-03-23 09:53:00,28.0,23.0,30.08,North,355,1.0,2.0,80,0.00,,,0.03,,2013-03-23 13:53:00,
2013-03-23 10:03:00,29.0,23.0,30.08,North,10,0.0,6.0,78,0.00,,,0.03,,2013-03-23 14:03:00,
2013-03-23 10:12:00,29.0,23.0,30.08,North,10,0.0,6.0,78,0.00,,,0.03,,2013-03-23 14:12:00,
2013-03-23 10:23:00,29.0,23.0,30.08,North,10,0.0,6.0,78,0.00,,,0.03,,2013-03-23 14:23:00,
2013-03-23 10:32:00,29.0,23.0,30.09,NNW,333,2.0,8.0,77,0.00,,,0.03,,2013-03-23 14:32:00,
2013-03-23 10:43:00,29.0,23.0,30.09,NNW,333,2.0,8.0,77,0.00,,,0.03,,2013-03-23 14:43:00,
2013-03-23 10:53:00,29.0,23.0,30.09,NNW,333,2.0,8.0,77,0.00,,,0.03,,2013-03-23 14:53:00,
2013-03-23 11:04:00,30.0,24.0,30.10,NNW,342,0.0,3.0,77,0.00,,,0.03,,2013-03-23 15:04:00,
2013-03-23 11:12:00,30.0,24.0,30.10,NNW,342,0.0,3.0,77,0.00,,,0.03,,2013-03-23 15:12:00,
2013-03-23 11:22:00,30.0,24.0,30.10,NNW,342,0.0,3.0,77,0.00,,,0.03,,2013-03-23 15:22:00,
2013-03-23 11:33:00,30.0,23.0,30.11,ENE,57,1.0,3.0,74,0.00,,,0.03,,2013-03-23 15:33:00,
2013-03-23 11:43:00,30.0,23.0,30.11,ENE,57,1.0,3.0,74,0.00,,,0.03,,2013-03-23 15:43:00,
2013-03-23 11:53:00,30.0,23.0,30.11,ENE,57,1.0,3.0,74,0.00,,,0.03,,2013-03-23 15:53:00,
2013-03-23 12:03:00,30.0,22.0,30.12,North,354,2.0,5.0,73,0.00,,,0.03,,2013-03-23 16:03:00,
2013-03-23 12:13:00,30.0,22.0,30.12,North,354,2.0,5.0,73,0.00,,,0.03,,2013-03-23 16:13:00,
2013-03-23 12:23:00,30.0,22.0,30.12,North,354,2.0,5.0,73,0.00,,,0.03,,2013-03-23 16:23:00,
2013-03-23 12:33:00,30.0,22.0,30.13,North,355,3.0,6.0,72,0.00,,,0.03,,2013-03-23 16:33:00,
2013-03-23 12:43:00,30.0,22.0,30.13,North,355,3.0,6.0,72,0.00,,,0.03,,2013-03-23 16:43:00,
2013-03-23 12:54:00,30.0,22.0,30.13,North,355,3.0,6.0,72,0.00,,,0.03,,2013-03-23 16:54:00,
2013-03-23 13:03:00,31.0,23.0,30.12,NNW,348,1.0,6.0,72,0.00,,,0.02,,2013-03-23 17:03:00,
2013-03-23 13:12:00,31.0,23.0,30.12,NNW,348,1.0,6.0,72,0.00,,,0.02,,2013-03-23 17:12:00,
2013-03-23 13:23:00,31.0,23.0,30.12,NNW,348,1.0,6.0,72,0.00,,,0.02,,2013-03-23 17:23:00,
2013-03-23 13:33:00,31.0,23.0,30.12,North,355,4.0,6.0,71,0.00,,,0.02,,2013-03-23 17:33:00,
2013-03-23 13:42:00,31.0,23.0,30.12,North,355,4.0,6.0,71,0.00,,,0.02,,2013-03-23 17:42:00,
2013-03-23 13:53:00,31.0,23.0,30.12,North,355,4.0,6.0,71,0.00,,,0.02,,2013-03-23 17:53:00,
2013-03-23 14:03:00,31.0,22.0,30.11,NE,50,3.0,6.0,70,0.00,,,0.02,,2013-03-23 18:03:00,
2013-03-23 14:12:00,31.0,22.0,30.11,NE,50,3.0,6.0,70,0.00,,,0.02,,2013-03-23 18:12:00,
2013-03-23 14:23:00,31.0,22.0,30.11,NE,50,3.0,6.0,70,0.00,,,0.02,,2013-03-23 18:23:00,
2013-03-23 14:32:00,32.0,23.0,30.11,North,357,3.0,7.0,70,0.00,,,0.02,,2013-03-23 18:32:00,
2013-03-23 14:42:00,32.0,23.0,30.11,North,357,3.0,7.0,70,0.00,,,0.02,,2013-03-23 18:42:00,
2013-03-23 14:53:00,32.0,23.0,30.11,North,357,3.0,7.0,70,0.00,,,0.02,,2013-03-23 18:53:00,
2013-03-23 15:03:00,32.0,23.0,30.11,NNW,334,2.0,5.0,69,0.00,,,0.02,,2013-03-23 19:03:00,
2013-03-23 15:13:00,32.0,23.0,30.11,NNW,334,2.0,5.0,69,0.00,,,0.02,,2013-03-23 19:13:00,
2013-03-23 15:23:00,32.0,23.0,30.11,NNW,334,2.0,5.0,69,0.00,,,0.02,,2013-03-23 19:23:00,
2013-03-23 15:32:00,33.0,24.0,30.09,North,0,1.0,7.0,70,0.00,,,0.01,,2013-03-23 19:32:00,
2013-03-23 15:42:00,33.0,24.0,30.09,North,0,1.0,7.0,70,0.00,,,0.01,,2013-03-23 19:42:00,
2013-03-23 15:53:00,33.0,24.0,30.09,North,0,1.0,7.0,70,0.00,,,0.01,,2013-03-23 19:53:00,
2013-03-23 16:03:00,34.0,24.0,30.08,North,0,2.0,5.0,66,0.00,,,0.01,,2013-03-23 20:03:00,
2013-03-23 16:13:00,34.0,24.0,30.08,North,0,2.0,5.0,66,0.00,,,0.01,,2013-03-23 20:13:00,
2013-03-23 16:23:00,34.0,24.0,30.08,North,0,2.0,5.0,66,0.00,,,0.01,,2013-03-23 20:23:00,
2013-03-23 16:32:00,34.0,24.0,30.08,NNW,330,3.0,8.0,67,0.00,,,0.01,,2013-03-23 20:32:00,
2013-03-23 16:42:00,34.0,24.0,30.08,NNW,330,3.0,8.0,67,0.00,,,0.01,,2013-03-23 20:42:00,
2013-03-23 16:53:00,34.0,24.0,30.08,NNW,330,3.0,8.0,67,0.00,,,0.01,,2013-03-23 20:53:00,
2013-03-23 17:02:00,34.0,24.0,30.08,NNW,346,3.0,7.0,66,0.00,,,0.00,,2013-03-23 21:02:00,
2013-03-23 17:12:00,34.0,24.0,30.08,NNW,346,3.0,7.0,66,0.00,,,0.00,,2013-03-23 21:12:00,
2013-03-23 17:22:00,34.0,24.0,30.08,NNW,346,3.0,7.0,66,0.00,,,0.00,,2013-03-23 21:22:00,
2013-03-23 17:33:00,34.0,23.0,30.08,NNE,12,4.0,8.0,65,0.00,,,0.00,,2013-03-23 21:33:00,
2013-03-23 17:43:00,34.0,23.0,30.08,NNE,12,4.0,8.0,65,0.00,,,0.00,,2013-03-23 21:43:00,
2013-03-23 17:54:00,34.0,23.0,30.08,NNE,12,4.0,8.0,65,0.00,,,0.00,,2013-03-23 21:54:00,
2013-03-23 18:03:00,34.0,24.0,30.07,North,0,2.0,6.0,66,0.00,,,0.00,,2013-03-23 22:03:00,
2013-03-23 18:13:00,34.0,24.0,30.07,North,0,2.0,6.0,66,0.00,,,0.00,,2013-03-23 22:13:00,
2013-03-23 18:23:00,34.0,24.0,30.07,North,0,2.0,6.0,66,0.00,,,0.00,,2013-03-23 22:23:00,
2013-03-23 18:33:00,35.0,25.0,30.07,NNW,336,1.0,3.0,66,0.00,,,0.00,,2013-03-23 22:33:00,
2013-03-23 18:42:00,35.0,25.0,30.07,NNW,336,1.0,3.0,66,0.00,,,0.00,,2013-03-23 22:42:00,
2013-03-23 18:53:00,35.0,25.0,30.07,NNW,336,1.0,3.0,66,0.00,,,0.00,,2013-03-23 22:53:00,
2013-03-23 19:03:00,34.0,24.0,30.07,NNW,336,2.0,3.0,66,0.00,,,0.00,,2013-03-23 23:03:00,
2013-03-23 19:13:00,34.0,24.0,30.07,NNW,336,2.0,3.0,66,0.00,,,0.00,,2013-03-23 23:13:00,
2013-03-23 19:23:00,34.0,24.0,30.07,NNW,336,2.0,3.0,66,0.00,,,0.00,,2013-03-23 23:23:00,
2013-03-23 19:33:00,34.0,24.0,30.06,NNW,335,0.0,3.0,67,0.00,,,0.00,,2013-03-23 23:33:00,
2013-03-23 19:43:00,34.0,24.0,30.06,NNW,335,0.0,3.0,67,0.00,,,0.00,,2013-03-23 23:43:00,
2013-03-23 19:53:00,34.0,24.0,30.06,NNW,335,0.0,3.0,67,0.00,,,0.00,,2013-03-23 23:53:00,
2013-03-23 20:02:00,34.0,24.0,30.06,NNW,335,0.0,3.0,67,0.00,,,0.00,,2013-03-24 00:02:00,
2013-03-23 20:13:00,34.0,24.0,30.06,NNW,335,0.0,3.0,67,0.00,,,0.00,,2013-03-24 00:13:00,
2013-03-23 20:33:00,31.0,23.0,30.05,NNW,334,0.0,2.0,73,0.00,,,0.00,,2013-03-24 00:33:00,
2013-03-23 20:42:00,31.0,23.0,30.05,NNW,334,0.0,2.0,73,0.00,,,0.00,,2013-03-24 00:42:00,
2013-03-23 20:53:00,31.0,23.0,30.05,NNW,334,0.0,2.0,73,0.00,,,0.00,,2013-03-24 00:53:00,
2013-03-23 21:02:00,30.0,23.0,30.05,NNW,333,0.0,0.0,76,0.00,,,0.00,,2013-03-24 01:02:00,
2013-03-23 21:12:00,30.0,23.0,30.05,NNW,333,0.0,0.0,76,0.00,,,0.00,,2013-03-24 01:12:00,
2013-03-23 21:22:00,30.0,23.0,30.05,NNW,333,0.0,0.0,76,0.00,,,0.00,,2013-03-24 01:22:00,
2013-03-23 21:33:00,28.0,22.0,30.05,NNW,334,0.0,0.0,77,0.00,,,0.00,,2013-03-24 01:33:00,
2013-03-23 21:42:00,28.0,22.0,30.05,NNW,334,0.0,0.0,77,0.00,,,0.00,,2013-03-24 01:42:00,
2013-03-23 21:53:00,28.0,22.0,30.05,NNW,334,0.0,0.0,77,0.00,,,0.00,,2013-03-24 01:53:00,
2013-03-23 22:03:00,28.0,23.0,30.05,NNW,334,0.0,0.0,80,0.00,,,0.00,,2013-03-24 02:03:00,
2013-03-23 22:12:00,28.0,23.0,30.05,NNW,334,0.0,0.0,80,0.00,,,0.00,,2013-03-24 02:12:00,
2013-03-23 22:22:00,28.0,23.0,30.05,NNW,334,0.0,0.0,80,0.00,,,0.00,,2013-03-24 02:22:00,
2013-03-23 22:32:00,28.0,23.0,30.05,NNW,334,0.0,0.0,80,0.00,,,0.00,,2013-03-24 02:32:00,
2013-03-23 22:42:00,28.0,23.0,30.05,NNW,334,0.0,0.0,80,0.00,,,0.00,,2013-03-24 02:42:00,
2013-03-23 23:03:00,27.0,22.0,30.07,NNW,334,0.0,1.0,82,0.00,,,0.00,,2013-03-24 03:03:00,
2013-03-23 23:13:00,27.0,22.0,30.07,NNW,334,0.0,1.0,82,0.00,,,0.00,,2013-03-24 03:13:00,
2013-03-23 23:23:00,27.0,22.0,30.07,NNW,334,0.0,1.0,82,0.00,,,0.00,,2013-03-24 03:23:00,
2013-03-23 23:33:00,26.0,22.0,30.05,NNW,334,0.0,1.0,83,0.00,,,0.00,,2013-03-24 03:33:00,
2013-03-23 23:42:00,26.0,22.0,30.05,NNW,334,0.0,1.0,83,0.00,,,0.00,,2013-03-24 03:42:00,
2013-03-23 23:53:00,26.0,22.0,30.05,NNW,334,0.0,1.0,83,0.00,,,0.00,,2013-03-24 03:53:00,